createdAt,value
2018-02-07T00:00:54.262Z,12.77
2018-02-07T00:03:22.529Z,13.18
2018-02-07T00:05:50.816Z,13.88
2018-02-07T00:08:22.823Z,14.55
2018-02-07T00:10:55.720Z,15.40
2018-02-07T00:13:23.996Z,16.67
2018-02-07T00:15:52.989Z,15.00
2018-02-07T00:18:22.029Z,15.32
2018-02-07T00:20:50.308Z,16.15
2018-02-07T00:23:18.578Z,16.62
2018-02-07T00:25:53.352Z,14.00
2018-02-07T00:28:21.625Z,14.65
2018-02-07T00:30:49.910Z,14.63
2018-02-07T00:33:18.203Z,16.30
2018-02-07T00:35:46.484Z,16.58
2018-02-07T00:38:14.747Z,16.30
2018-02-07T00:40:43.041Z,17.35
2018-02-07T00:43:11.305Z,13.30
2018-02-07T00:45:39.589Z,15.13
2018-02-07T00:48:07.856Z,15.20
2018-02-07T00:50:36.144Z,14.38
2018-02-07T00:53:19.390Z,16.27
2018-02-07T00:55:47.660Z,13.98
2018-02-07T00:58:22.356Z,13.57
2018-02-07T01:00:50.654Z,14.95
2018-02-07T01:03:19.685Z,18.10
2018-02-07T01:05:47.961Z,16.62
2018-02-07T01:08:16.987Z,15.95
2018-02-07T01:10:45.260Z,17.10
2018-02-07T01:13:14.332Z,14.95
2018-02-07T01:15:42.612Z,16.10
2018-02-07T01:18:10.889Z,15.48
2018-02-07T01:20:39.168Z,17.55
2018-02-07T01:23:07.428Z,16.67
2018-02-07T01:25:35.706Z,15.40
2018-02-07T01:28:12.180Z,16.60
2018-02-07T01:30:41.369Z,15.30
2018-02-07T01:33:09.648Z,14.10
2018-02-07T01:35:37.926Z,15.38
2018-02-07T01:38:06.211Z,15.55
2018-02-07T01:40:35.495Z,13.20
2018-02-07T01:43:03.769Z,16.48
2018-02-07T01:45:32.041Z,17.17
2018-02-07T01:48:01.081Z,13.70
2018-02-07T01:50:29.929Z,14.07
2018-02-07T01:52:58.271Z,14.20
2018-02-07T01:55:27.277Z,14.43
2018-02-07T01:57:55.608Z,14.32
2018-02-07T02:00:23.829Z,15.40
2018-02-07T02:02:52.878Z,14.90
2018-02-07T02:05:21.172Z,14.45
2018-02-07T02:07:49.447Z,14.45
2018-02-07T02:10:17.712Z,16.45
2018-02-07T02:12:46.009Z,17.10
2018-02-07T02:15:21.180Z,14.32
2018-02-07T02:17:49.463Z,14.13
2018-02-07T02:20:17.720Z,14.50
2018-02-07T02:22:46.013Z,15.10
2018-02-07T02:25:14.296Z,14.55
2018-02-07T02:27:42.581Z,16.70
2018-02-07T02:30:11.612Z,16.85
2018-02-07T02:32:39.897Z,14.98
2018-02-07T02:35:08.169Z,17.98
2018-02-07T02:37:40.771Z,18.55
2018-02-07T02:40:20.289Z,16.58
2018-02-07T02:42:49.345Z,16.65
2018-02-07T02:45:17.608Z,15.82
2018-02-07T02:47:45.896Z,17.62
2018-02-07T02:50:14.166Z,21.77
2018-02-07T02:52:56.025Z,20.60
2018-02-07T02:55:24.301Z,17.50
2018-02-07T02:57:52.800Z,19.08
2018-02-07T03:00:21.097Z,17.73
2018-02-07T03:02:49.366Z,16.23
2018-02-07T03:05:21.290Z,15.45
2018-02-07T03:07:51.577Z,14.35
2018-02-07T03:10:19.843Z,15.25
2018-02-07T03:12:48.116Z,16.33
2018-02-07T03:15:19.093Z,13.45
2018-02-07T03:17:57.703Z,17.33
2018-02-07T03:20:26.749Z,19.48
2018-02-07T03:22:55.023Z,22.58
2018-02-07T03:25:23.295Z,20.25
2018-02-07T03:27:51.582Z,20.00
2018-02-07T03:30:21.082Z,19.30
2018-02-07T03:32:49.377Z,18.73
2018-02-07T03:35:18.418Z,16.80
2018-02-07T03:37:46.703Z,19.25
2018-02-07T03:40:15.891Z,17.05
2018-02-07T03:42:44.965Z,17.58
2018-02-07T03:45:13.242Z,14.85
2018-02-07T03:47:41.526Z,13.80
2018-02-07T03:50:09.790Z,13.32
2018-02-07T03:52:38.341Z,12.30
2018-02-07T03:55:06.613Z,13.65
2018-02-07T03:57:34.893Z,13.25
2018-02-07T04:00:03.165Z,15.57
2018-02-07T04:02:31.443Z,13.35
2018-02-07T04:04:59.721Z,12.48
2018-02-07T04:07:28.002Z,13.45
2018-02-07T04:09:56.267Z,11.00
2018-02-07T04:12:25.309Z,15.73
2018-02-07T04:14:57.580Z,16.55
2018-02-07T04:17:25.878Z,14.10
2018-02-07T04:19:54.152Z,15.25
2018-02-07T04:22:23.385Z,14.05
2018-02-07T04:24:51.657Z,14.52
2018-02-07T04:27:33.719Z,14.38
2018-02-07T04:30:02.016Z,16.33
2018-02-07T04:32:30.287Z,16.77
2018-02-07T04:34:58.569Z,15.07
2018-02-07T04:37:26.853Z,14.32
2018-02-07T04:39:55.120Z,13.32
2018-02-07T04:42:23.409Z,14.50
2018-02-07T04:45:01.598Z,14.30
2018-02-07T04:47:31.563Z,14.90
2018-02-07T04:49:59.844Z,15.02
2018-02-07T04:52:28.113Z,16.62
2018-02-07T04:54:58.062Z,13.60
2018-02-07T04:57:26.352Z,12.90
2018-02-07T04:59:54.628Z,13.30
2018-02-07T05:02:22.908Z,14.65
2018-02-07T05:04:52.852Z,15.95
2018-02-07T05:07:23.091Z,17.10
2018-02-07T05:09:51.352Z,15.30
2018-02-07T05:12:20.393Z,16.30
2018-02-07T05:14:48.662Z,17.65
2018-02-07T05:17:16.956Z,16.65
2018-02-07T05:19:45.220Z,16.35
2018-02-07T05:22:14.251Z,15.82
2018-02-07T05:24:42.527Z,17.25
2018-02-07T05:27:11.568Z,16.67
2018-02-07T05:29:39.836Z,17.65
2018-02-07T05:32:08.103Z,18.58
2018-02-07T05:34:37.148Z,19.62
2018-02-07T05:37:05.408Z,16.85
2018-02-07T05:39:37.196Z,18.20
2018-02-07T05:42:05.458Z,17.25
2018-02-07T05:44:34.500Z,16.98
2018-02-07T05:47:02.777Z,20.08
2018-02-07T05:49:36.298Z,19.33
2018-02-07T05:52:04.574Z,20.37
2018-02-07T05:54:33.788Z,18.50
2018-02-07T05:57:02.052Z,20.52
2018-02-07T05:59:31.105Z,20.70
2018-02-07T06:01:59.408Z,24.67
2018-02-07T06:04:49.415Z,22.65
2018-02-07T06:07:17.670Z,22.75
2018-02-07T06:09:46.874Z,23.48
2018-02-07T06:12:24.936Z,25.42
2018-02-07T06:14:53.233Z,24.23
2018-02-07T06:17:21.504Z,26.00
2018-02-07T06:19:49.780Z,22.58
2018-02-07T06:22:18.057Z,23.42
2018-02-07T06:24:46.356Z,21.60
2018-02-07T06:27:14.617Z,36.45
2018-02-07T06:29:44.849Z,31.25
2018-02-07T06:32:15.072Z,31.27
2018-02-07T06:34:43.353Z,23.80
2018-02-07T06:37:12.383Z,29.75
2018-02-07T06:39:41.436Z,23.85
2018-02-07T06:42:09.710Z,25.33
2018-02-07T06:44:37.989Z,23.40
2018-02-07T06:47:06.257Z,24.17
2018-02-07T06:49:34.545Z,26.55
2018-02-07T06:52:02.825Z,26.40
2018-02-07T06:54:31.113Z,26.60
2018-02-07T06:56:59.385Z,26.62
2018-02-07T06:59:28.463Z,27.33
2018-02-07T07:01:56.733Z,27.73
2018-02-07T07:04:25.008Z,27.08
2018-02-07T07:06:53.272Z,30.20
2018-02-07T07:09:21.566Z,28.23
2018-02-07T07:11:49.827Z,30.02
2018-02-07T07:14:18.867Z,31.35
2018-02-07T07:16:47.137Z,29.55
2018-02-07T07:19:15.401Z,31.08
2018-02-07T07:21:43.666Z,29.48
2018-02-07T07:24:11.942Z,27.60
2018-02-07T07:26:40.200Z,27.58
2018-02-07T07:29:08.515Z,28.58
2018-02-07T07:31:36.781Z,29.40
2018-02-07T07:34:05.065Z,29.25
2018-02-07T07:36:33.372Z,29.30
2018-02-07T07:39:01.666Z,29.35
2018-02-07T07:41:29.941Z,28.65
2018-02-07T07:43:58.220Z,30.77
2018-02-07T07:46:26.494Z,28.55
2018-02-07T07:48:55.541Z,31.15
2018-02-07T07:51:23.818Z,30.12
2018-02-07T07:53:52.115Z,30.52
2018-02-07T07:56:20.412Z,28.55
2018-02-07T07:58:48.698Z,28.75
2018-02-07T08:01:16.964Z,28.67
2018-02-07T08:03:45.240Z,30.33
2018-02-07T08:06:13.513Z,30.80
2018-02-07T08:08:42.599Z,29.15
2018-02-07T08:11:10.824Z,29.10
2018-02-07T08:13:39.099Z,29.87
2018-02-07T08:16:08.119Z,30.00
2018-02-07T08:18:36.396Z,28.67
2018-02-07T08:21:05.437Z,28.52
2018-02-07T08:23:33.718Z,28.35
2018-02-07T08:26:02.002Z,31.87
2018-02-07T08:28:30.325Z,31.90
2018-02-07T08:30:58.557Z,29.42
2018-02-07T08:33:28.081Z,27.85
2018-02-07T08:35:56.339Z,25.73
2018-02-07T08:38:24.617Z,25.95
2018-02-07T08:40:52.892Z,24.67
2018-02-07T08:43:21.159Z,25.10
2018-02-07T08:45:49.428Z,25.23
2018-02-07T08:48:17.697Z,24.98
2018-02-07T08:50:46.740Z,27.20
2018-02-07T08:53:15.012Z,25.52
2018-02-07T08:55:43.277Z,24.92
2018-02-07T08:58:12.313Z,27.20
2018-02-07T09:00:40.587Z,24.77
2018-02-07T09:03:08.909Z,24.73
2018-02-07T09:05:37.129Z,26.87
2018-02-07T09:08:05.408Z,25.77
2018-02-07T09:10:33.668Z,26.55
2018-02-07T09:13:01.955Z,24.33
2018-02-07T09:15:30.238Z,24.27
2018-02-07T09:17:58.508Z,23.58
2018-02-07T09:20:26.767Z,25.60
2018-02-07T09:22:55.814Z,25.62
2018-02-07T09:25:24.853Z,24.55
2018-02-07T09:27:53.136Z,24.77
2018-02-07T09:30:21.401Z,26.33
2018-02-07T09:32:49.682Z,26.27
2018-02-07T09:35:17.944Z,25.62
2018-02-07T09:37:46.992Z,25.15
2018-02-07T09:40:15.266Z,25.00
2018-02-07T09:42:43.537Z,26.35
2018-02-07T09:45:11.817Z,26.92
2018-02-07T09:47:40.858Z,25.90
2018-02-07T09:50:09.132Z,27.40
2018-02-07T09:52:37.400Z,24.17
2018-02-07T09:55:06.453Z,24.87
2018-02-07T09:57:34.730Z,24.80
2018-02-07T10:00:03.136Z,24.15
2018-02-07T10:02:31.412Z,27.42
2018-02-07T10:04:59.703Z,25.15
2018-02-07T10:07:27.983Z,26.05
2018-02-07T10:09:56.259Z,27.27
2018-02-07T10:12:24.529Z,26.52
2018-02-07T10:14:52.817Z,27.60
2018-02-07T10:17:21.107Z,24.45
2018-02-07T10:19:50.151Z,25.60
2018-02-07T10:22:18.434Z,23.95
2018-02-07T10:24:46.747Z,25.48
2018-02-07T10:27:15.005Z,22.48
2018-02-07T10:29:44.057Z,25.75
2018-02-07T10:32:12.334Z,25.45
2018-02-07T10:34:40.616Z,24.15
2018-02-07T10:37:08.884Z,25.90
2018-02-07T10:39:37.204Z,25.27
2018-02-07T10:42:05.467Z,27.37
2018-02-07T10:44:33.755Z,23.98
2018-02-07T10:47:02.030Z,27.30
2018-02-07T10:49:31.029Z,26.90
2018-02-07T10:51:59.288Z,27.30
2018-02-07T10:54:28.327Z,26.80
2018-02-07T10:56:56.613Z,27.60
2018-02-07T10:59:24.905Z,29.10
2018-02-07T11:01:53.184Z,28.05
2018-02-07T11:04:21.453Z,27.80
2018-02-07T11:06:50.493Z,26.90
2018-02-07T11:09:18.761Z,28.65
2018-02-07T11:11:47.039Z,28.30
2018-02-07T11:14:15.313Z,27.25
2018-02-07T11:16:44.365Z,25.02
2018-02-07T11:19:12.633Z,25.65
2018-02-07T11:21:40.915Z,25.73
2018-02-07T11:24:09.200Z,26.73
2018-02-07T11:26:37.483Z,26.67
2018-02-07T11:29:06.525Z,29.55
2018-02-07T11:31:34.807Z,29.05
2018-02-07T11:34:05.045Z,25.37
2018-02-07T11:36:33.342Z,28.12
2018-02-07T11:39:01.621Z,27.05
2018-02-07T11:41:29.924Z,26.25
2018-02-07T11:43:58.206Z,29.50
2018-02-07T11:46:26.497Z,29.30
2018-02-07T11:48:54.765Z,28.70
2018-02-07T11:51:23.242Z,28.58
2018-02-07T11:53:51.525Z,31.98
2018-02-07T11:56:20.572Z,30.00
2018-02-07T11:58:48.849Z,34.70
2018-02-07T12:01:17.171Z,32.93
2018-02-07T12:03:45.438Z,32.90
2018-02-07T12:06:13.720Z,33.43
2018-02-07T12:08:41.975Z,31.97
2018-02-07T12:11:10.251Z,31.83
2018-02-07T12:13:39.288Z,30.40
2018-02-07T12:16:07.548Z,33.37
2018-02-07T12:18:35.809Z,34.97
2018-02-07T12:21:04.088Z,32.50
2018-02-07T12:23:32.353Z,32.13
2018-02-07T12:26:00.633Z,31.80
2018-02-07T12:28:28.961Z,33.00
2018-02-07T12:30:57.237Z,32.50
2018-02-07T12:33:25.509Z,31.23
2018-02-07T12:35:53.780Z,32.10
2018-02-07T12:38:22.099Z,32.47
2018-02-07T12:40:50.380Z,30.90
2018-02-07T12:43:18.644Z,30.80
2018-02-07T12:45:46.926Z,29.60
2018-02-07T12:48:15.476Z,30.70
2018-02-07T12:50:44.656Z,30.12
2018-02-07T12:53:12.945Z,28.12
2018-02-07T12:55:41.225Z,31.85
2018-02-07T12:58:09.517Z,32.08
2018-02-07T13:00:37.808Z,32.15
2018-02-07T13:03:06.116Z,33.13
2018-02-07T13:05:34.384Z,31.02
2018-02-07T13:08:02.671Z,30.25
2018-02-07T13:10:31.785Z,29.87
2018-02-07T13:13:00.835Z,30.25
2018-02-07T13:15:29.113Z,28.90
2018-02-07T13:17:57.509Z,27.90
2018-02-07T13:20:25.781Z,28.08
2018-02-07T13:22:54.064Z,30.83
2018-02-07T13:25:22.341Z,26.48
2018-02-07T13:27:50.616Z,28.33
2018-02-07T13:30:18.884Z,25.90
2018-02-07T13:32:47.151Z,26.62
2018-02-07T13:35:16.380Z,26.73
2018-02-07T13:37:45.416Z,27.13
2018-02-07T13:40:14.613Z,21.98
2018-02-07T13:42:42.898Z,24.55
2018-02-07T13:45:11.184Z,24.60
2018-02-07T13:47:39.457Z,28.98
2018-02-07T13:50:08.518Z,32.10
2018-02-07T13:52:36.787Z,19.90
2018-02-07T13:55:05.312Z,23.95
2018-02-07T13:57:33.579Z,21.20
2018-02-07T14:00:03.398Z,52.38
2018-02-07T14:02:31.689Z,45.05
2018-02-07T14:04:59.961Z,54.67
2018-02-07T14:07:28.246Z,56.10
2018-02-07T14:09:56.515Z,54.15
2018-02-07T14:12:25.552Z,36.83
2018-02-07T14:14:53.821Z,51.37
2018-02-07T14:17:22.098Z,50.88
2018-02-07T14:19:51.131Z,37.05
2018-02-07T14:22:19.410Z,21.48
2018-02-07T14:24:47.658Z,22.90
2018-02-07T14:27:15.944Z,45.65
2018-02-07T14:29:44.204Z,18.65
2018-02-07T14:32:12.488Z,19.87
2018-02-07T14:34:40.745Z,36.42
2018-02-07T14:37:09.028Z,54.80
2018-02-07T14:39:37.292Z,53.47
2018-02-07T14:42:05.559Z,37.03
2018-02-07T14:44:33.848Z,39.80
2018-02-07T14:47:02.140Z,64.43
2018-02-07T14:49:30.408Z,41.20
2018-02-07T14:51:58.696Z,39.78
2018-02-07T14:54:26.976Z,48.63
2018-02-07T14:56:55.252Z,38.85
2018-02-07T14:59:23.522Z,49.35
2018-02-07T15:01:51.808Z,36.28
2018-02-07T15:04:20.834Z,42.33
2018-02-07T15:06:49.103Z,20.05
2018-02-07T15:09:18.144Z,37.85
2018-02-07T15:11:46.425Z,33.75
2018-02-07T15:14:14.683Z,33.53
2018-02-07T15:16:43.720Z,41.60
2018-02-07T15:19:11.979Z,42.75
2018-02-07T15:21:40.250Z,33.13
2018-02-07T15:24:08.520Z,37.95
2018-02-07T15:26:36.797Z,30.10
2018-02-07T15:29:05.065Z,38.45
2018-02-07T15:31:33.351Z,22.27
2018-02-07T15:34:01.609Z,41.15
2018-02-07T15:36:30.662Z,22.33
2018-02-07T15:38:58.921Z,25.40
2018-02-07T15:41:27.191Z,25.08
2018-02-07T15:43:56.215Z,24.48
2018-02-07T15:46:24.487Z,23.05
2018-02-07T15:48:52.760Z,23.40
2018-02-07T15:51:21.045Z,24.77
2018-02-07T15:53:49.305Z,24.20
2018-02-07T15:56:17.576Z,23.77
2018-02-07T15:58:45.834Z,25.60
2018-02-07T16:01:14.167Z,24.60
2018-02-07T16:03:42.394Z,25.00
2018-02-07T16:06:11.437Z,26.92
2018-02-07T16:08:39.691Z,24.95
2018-02-07T16:11:08.734Z,25.92
2018-02-07T16:13:37.002Z,28.00
2018-02-07T16:16:05.273Z,25.85
2018-02-07T16:18:34.295Z,25.12
2018-02-07T16:21:02.575Z,26.12
2018-02-07T16:23:31.611Z,27.92
2018-02-07T16:25:59.890Z,27.27
2018-02-07T16:28:28.164Z,26.42
2018-02-07T16:30:57.200Z,30.27
2018-02-07T16:33:25.470Z,30.60
2018-02-07T16:35:53.740Z,30.77
2018-02-07T16:38:22.774Z,33.85
2018-02-07T16:40:51.844Z,30.58
2018-02-07T16:43:20.881Z,31.10
2018-02-07T16:45:49.158Z,30.45
2018-02-07T16:48:18.198Z,31.12
2018-02-07T16:50:46.467Z,31.20
2018-02-07T16:53:14.746Z,33.33
2018-02-07T16:55:43.017Z,33.13
2018-02-07T16:58:12.060Z,27.77
2018-02-07T17:00:40.315Z,38.05
2018-02-07T17:03:08.586Z,33.03
2018-02-07T17:05:36.853Z,33.63
2018-02-07T17:08:05.124Z,32.67
2018-02-07T17:10:33.391Z,32.10
2018-02-07T17:13:01.668Z,31.15
2018-02-07T17:15:29.928Z,34.47
2018-02-07T17:17:58.289Z,34.65
2018-02-07T17:20:26.586Z,32.47
2018-02-07T17:22:54.869Z,30.75
2018-02-07T17:25:23.139Z,32.83
2018-02-07T17:28:04.051Z,31.45
2018-02-07T17:30:32.316Z,31.12
2018-02-07T17:33:00.661Z,31.60
2018-02-07T17:35:28.929Z,31.62
2018-02-07T17:38:21.987Z,31.58
2018-02-07T17:40:53.518Z,31.60
2018-02-07T17:43:21.804Z,30.52
2018-02-07T17:45:51.013Z,30.85
2018-02-07T17:48:19.281Z,30.65
2018-02-07T17:50:47.543Z,32.22
2018-02-07T17:53:15.834Z,32.28
2018-02-07T17:55:44.100Z,30.65
2018-02-07T17:58:12.375Z,30.62
2018-02-07T18:00:40.652Z,29.87
2018-02-07T18:03:08.928Z,32.05
2018-02-07T18:05:37.207Z,30.85
2018-02-07T18:08:05.667Z,25.25
2018-02-07T18:10:33.934Z,32.58
2018-02-07T18:13:02.226Z,31.65
2018-02-07T18:15:30.495Z,31.50
2018-02-07T18:17:58.768Z,31.12
2018-02-07T18:20:27.030Z,35.90
2018-02-07T18:22:56.081Z,32.67
2018-02-07T18:25:24.361Z,31.70
2018-02-07T18:27:52.631Z,32.67
2018-02-07T18:30:20.891Z,32.90
2018-02-07T18:32:49.926Z,30.08
2018-02-07T18:35:18.215Z,32.45
2018-02-07T18:37:46.499Z,33.15
2018-02-07T18:40:14.776Z,33.08
2018-02-07T18:42:43.817Z,31.60
2018-02-07T18:45:12.106Z,31.25
2018-02-07T18:47:40.387Z,33.20
2018-02-07T18:50:08.648Z,35.20
2018-02-07T18:52:37.700Z,33.42
2018-02-07T18:55:05.969Z,31.62
2018-02-07T18:57:34.247Z,32.35
2018-02-07T19:00:02.521Z,31.30
2018-02-07T19:02:31.572Z,31.55
2018-02-07T19:04:59.850Z,31.37
2018-02-07T19:07:28.140Z,31.20
2018-02-07T19:09:56.420Z,31.83
2018-02-07T19:12:24.700Z,30.55
2018-02-07T19:14:52.969Z,31.48
2018-02-07T19:17:23.920Z,32.72
2018-02-07T19:19:53.056Z,30.92
2018-02-07T19:22:21.523Z,34.17
2018-02-07T19:24:49.800Z,33.47
2018-02-07T19:27:18.841Z,33.15
2018-02-07T19:29:47.106Z,33.50
2018-02-07T19:32:15.383Z,34.80
2018-02-07T19:34:44.424Z,36.22
2018-02-07T19:37:12.707Z,33.55
2018-02-07T19:39:40.987Z,32.90
2018-02-07T19:42:09.266Z,34.00
2018-02-07T19:44:38.308Z,30.92
2018-02-07T19:47:06.575Z,33.20
2018-02-07T19:49:34.852Z,31.30
2018-02-07T19:52:03.136Z,33.20
2018-02-07T19:54:32.178Z,32.60
2018-02-07T19:57:00.469Z,32.90
2018-02-07T19:59:28.740Z,34.60
2018-02-07T20:01:57.037Z,36.13
2018-02-07T20:04:25.321Z,37.58
2018-02-07T20:06:53.605Z,35.60
2018-02-07T20:09:21.896Z,33.00
2018-02-07T20:11:50.162Z,33.05
2018-02-07T20:14:19.199Z,34.03
2018-02-07T20:16:47.476Z,34.50
2018-02-07T20:19:15.757Z,34.85
2018-02-07T20:21:44.025Z,34.63
2018-02-07T20:24:13.063Z,33.45
2018-02-07T20:26:41.346Z,33.63
2018-02-07T20:29:09.625Z,32.63
2018-02-07T20:31:38.431Z,33.53
2018-02-07T20:34:06.725Z,35.88
2018-02-07T20:36:35.003Z,36.67
2018-02-07T20:39:03.286Z,39.58
2018-02-07T20:41:32.339Z,39.78
2018-02-07T20:44:00.629Z,39.30
2018-02-07T20:46:28.901Z,42.97
2018-02-07T20:48:57.171Z,40.63
2018-02-07T20:51:25.496Z,40.42
2018-02-07T20:53:54.483Z,41.95
2018-02-07T20:56:23.155Z,38.72
2018-02-07T20:58:51.437Z,40.40
2018-02-07T21:01:20.468Z,38.65
2018-02-07T21:03:48.752Z,39.03
2018-02-07T21:06:17.015Z,43.55
2018-02-07T21:08:46.062Z,43.28
2018-02-07T21:11:14.332Z,41.13
2018-02-07T21:13:42.618Z,39.33
2018-02-07T21:16:10.875Z,40.97
2018-02-07T21:18:39.924Z,40.05
2018-02-07T21:21:08.192Z,42.05
2018-02-07T21:23:37.269Z,40.05
2018-02-07T21:26:05.531Z,41.00
2018-02-07T21:28:33.807Z,44.75
2018-02-07T21:31:02.071Z,44.00
2018-02-07T21:33:30.358Z,43.87
2018-02-07T21:35:58.633Z,44.40
2018-02-07T21:38:27.676Z,44.55
2018-02-07T21:40:55.939Z,47.00
2018-02-07T21:43:24.229Z,45.00
2018-02-07T21:45:52.484Z,44.28
2018-02-07T21:48:20.769Z,40.63
2018-02-07T21:50:49.036Z,43.28
2018-02-07T21:53:17.309Z,43.25
2018-02-07T21:55:45.590Z,43.30
2018-02-07T21:58:13.862Z,46.33
2018-02-07T22:00:42.127Z,45.63
2018-02-07T22:03:11.173Z,44.47
2018-02-07T22:05:39.448Z,42.25
2018-02-07T22:08:07.737Z,45.90
2018-02-07T22:10:36.021Z,46.80
2018-02-07T22:13:04.302Z,44.88
2018-02-07T22:15:33.353Z,39.28
2018-02-07T22:18:01.645Z,39.40
2018-02-07T22:20:30.516Z,39.88
2018-02-07T22:22:58.794Z,39.42
2018-02-07T22:25:27.820Z,40.65
2018-02-07T22:27:56.106Z,41.33
2018-02-07T22:30:24.372Z,40.95
2018-02-07T22:32:52.648Z,40.58
2018-02-07T22:35:21.692Z,41.60
2018-02-07T22:37:49.971Z,39.20
2018-02-07T22:40:18.249Z,38.80
2018-02-07T22:42:46.521Z,39.95
2018-02-07T22:45:15.559Z,40.72
2018-02-07T22:47:43.827Z,41.08
2018-02-07T22:50:12.113Z,39.45
2018-02-07T22:52:41.149Z,40.70
2018-02-07T22:55:09.419Z,40.45
2018-02-07T22:57:37.691Z,41.88
2018-02-07T23:00:06.739Z,42.80
2018-02-07T23:02:35.017Z,41.03
2018-02-07T23:05:03.304Z,41.55
2018-02-07T23:07:31.566Z,38.67
2018-02-07T23:10:03.728Z,40.50
2018-02-07T23:12:32.007Z,40.00
2018-02-07T23:15:00.313Z,40.03
2018-02-07T23:17:29.595Z,41.37
2018-02-07T23:19:57.880Z,42.08
2018-02-07T23:22:26.172Z,38.35
2018-02-07T23:24:54.467Z,39.50
2018-02-07T23:27:22.736Z,38.38
2018-02-07T23:29:51.004Z,41.25
2018-02-07T23:32:19.281Z,41.17
2018-02-07T23:34:47.551Z,37.22
2018-02-07T23:37:16.582Z,42.28
2018-02-07T23:39:44.842Z,39.78
2018-02-07T23:42:13.142Z,37.90
2018-02-07T23:44:42.184Z,38.72
2018-02-07T23:47:10.479Z,38.47
2018-02-07T23:49:38.743Z,34.63
2018-02-07T23:52:07.032Z,35.90
2018-02-07T23:54:35.294Z,34.67
2018-02-07T23:57:04.352Z,34.65
2018-02-07T23:59:32.625Z,35.50
